Melissa RD121's Hourly Summary for Thursday, May 10, 2018
Hour Temp
(f)
RH
(%)
Solar Rad.
(MJ/m2)
Rainfall
(in)
Wind
(mph)
5/10/2018 12:00 AM 69 67 0 0 2.66
5/10/2018 1:00 AM 69 62 0 0 4.84
5/10/2018 2:00 AM 69 55 0 0 6.41
5/10/2018 3:00 AM 69 55 0 0 6.84
5/10/2018 4:00 AM 68 60 0 0 5.62
5/10/2018 5:00 AM 66 61 0 0 3.45
5/10/2018 6:00 AM 65 68 0.02 0 4.71
5/10/2018 7:00 AM 66 73 0.49 0 7.96
5/10/2018 8:00 AM 68 72 1.01 0 8.74
5/10/2018 9:00 AM 71 61 1.67 0 5.89
5/10/2018 10:00 AM 74 53 2.45 0 3.41
5/10/2018 11:00 AM 77 47 2.59 0 6.4
5/10/2018 12:00 PM 79 44 3.24 0 8.96
5/10/2018 1:00 PM 80 42 3.28 0 7.05
5/10/2018 2:00 PM 81 41 3.01 0 7.9
5/10/2018 3:00 PM 82 40 2.74 0 7.88
5/10/2018 4:00 PM 82 40 1.27 0 8.16
5/10/2018 5:00 PM 82 40 1.61 0 9.39
5/10/2018 6:00 PM 81 44 0.89 0 7.65
5/10/2018 7:00 PM 79 49 0.29 0 5.88
5/10/2018 8:00 PM 76 53 0.01 0 3.5
5/10/2018 9:00 PM 74 59 0 0 2.47
5/10/2018 10:00 PM 72 65 0 0 2.12
5/10/2018 11:00 PM 72 65 0 0 4.1
Data Summary 73 54 24.57 0.00 5.92